createdAt,value
2024-01-10T00:00:54.110Z,101779.22
2024-01-10T00:03:20.867Z,101786.00
2024-01-10T00:05:47.557Z,101787.41
2024-01-10T00:08:14.303Z,101783.19
2024-01-10T00:10:41.069Z,101785.41
2024-01-10T00:13:07.650Z,101787.00
2024-01-10T00:15:34.245Z,101790.72
2024-01-10T00:18:01.264Z,101790.59
2024-01-10T00:20:28.075Z,101794.34
2024-01-10T00:22:54.777Z,101788.69
2024-01-10T00:25:21.565Z,101794.00
2024-01-10T00:27:48.172Z,101787.81
2024-01-10T00:30:15.007Z,101788.47
2024-01-10T00:32:41.666Z,101788.03
2024-01-10T00:35:08.598Z,101785.44
2024-01-10T00:37:35.331Z,101786.31
2024-01-10T00:40:02.031Z,101794.44
2024-01-10T00:42:28.673Z,101792.56
2024-01-10T00:44:55.316Z,101795.13
2024-01-10T00:47:22.024Z,101802.03
2024-01-10T00:49:48.785Z,101801.31
2024-01-10T00:52:15.505Z,101795.00
2024-01-10T00:54:42.126Z,101800.72
2024-01-10T00:57:08.752Z,101796.19
2024-01-10T00:59:35.379Z,101802.41
2024-01-10T01:02:02.182Z,101793.53
2024-01-10T01:04:28.886Z,101794.25
2024-01-10T01:06:55.567Z,101798.34
2024-01-10T01:09:22.208Z,101799.13
2024-01-10T01:11:48.854Z,101803.66
2024-01-10T01:14:15.743Z,101800.44
2024-01-10T01:16:42.541Z,101797.34
2024-01-10T01:19:09.226Z,101797.34
2024-01-10T01:21:35.843Z,101795.91
2024-01-10T01:24:02.557Z,101804.34
2024-01-10T01:26:29.132Z,101795.44
2024-01-10T01:28:55.780Z,101796.91
2024-01-10T01:31:22.529Z,101792.81
2024-01-10T01:33:49.172Z,101791.22
2024-01-10T01:36:15.825Z,101794.22
2024-01-10T01:38:42.423Z,101794.31
2024-01-10T01:41:09.118Z,101796.97
2024-01-10T01:43:35.802Z,101797.63
2024-01-10T01:46:03.733Z,101793.13
2024-01-10T01:48:31.070Z,101792.72
2024-01-10T01:51:07.128Z,101790.63
2024-01-10T01:53:37.528Z,101796.66
2024-01-10T01:56:08.304Z,101788.38
2024-01-10T01:58:36.240Z,101784.41
2024-01-10T02:01:06.772Z,101787.59
2024-01-10T02:03:33.978Z,101790.41
2024-01-10T02:06:01.349Z,101789.09
2024-01-10T02:08:28.000Z,101789.63
2024-01-10T02:10:54.631Z,101786.47
2024-01-10T02:13:21.393Z,101786.25
2024-01-10T02:15:48.016Z,101783.44
2024-01-10T02:18:17.638Z,101783.69
2024-01-10T02:20:47.412Z,101778.47
2024-01-10T02:23:14.193Z,101776.47
2024-01-10T02:25:42.059Z,101772.19
2024-01-10T02:28:08.929Z,101775.38
2024-01-10T02:30:35.855Z,101770.16
2024-01-10T02:33:02.741Z,101772.28
2024-01-10T02:35:29.357Z,101773.06
2024-01-10T02:37:56.061Z,101774.78
2024-01-10T02:40:22.779Z,101769.88
2024-01-10T02:42:49.469Z,101764.03
2024-01-10T02:45:16.087Z,101758.44
2024-01-10T02:47:42.891Z,101768.13
2024-01-10T02:50:09.964Z,101770.97
2024-01-10T02:52:36.684Z,101770.94
2024-01-10T02:55:03.391Z,101768.81
2024-01-10T02:57:30.026Z,101774.50
2024-01-10T02:59:56.675Z,101774.22
2024-01-10T03:02:26.696Z,101767.16
2024-01-10T03:04:53.567Z,101776.34
2024-01-10T03:07:20.290Z,101772.47
2024-01-10T03:09:46.894Z,101778.31
2024-01-10T03:12:13.555Z,101776.97
2024-01-10T03:14:40.223Z,101777.25
2024-01-10T03:17:06.953Z,101774.22
2024-01-10T03:19:33.658Z,101776.09
2024-01-10T03:22:00.278Z,101778.50
2024-01-10T03:24:27.124Z,101779.56
2024-01-10T03:26:53.979Z,101779.19
2024-01-10T03:29:20.650Z,101778.31
2024-01-10T03:31:47.473Z,101777.84
2024-01-10T03:34:14.323Z,101772.72
2024-01-10T03:36:41.023Z,101779.00
2024-01-10T03:39:07.677Z,101770.16
2024-01-10T03:41:34.292Z,101770.22
2024-01-10T03:44:00.978Z,101773.72
2024-01-10T03:46:27.657Z,101772.81
2024-01-10T03:48:54.429Z,101764.81
2024-01-10T03:51:21.182Z,101766.41
2024-01-10T03:53:47.966Z,101768.38
2024-01-10T03:56:14.715Z,101773.78
2024-01-10T03:58:41.685Z,101777.06
2024-01-10T04:01:09.847Z,101773.44
2024-01-10T04:03:37.436Z,101769.88
2024-01-10T04:06:04.308Z,101776.72
2024-01-10T04:08:31.341Z,101783.75
2024-01-10T04:10:58.120Z,101781.44
2024-01-10T04:13:24.986Z,101778.28
2024-01-10T04:15:51.638Z,101773.34
2024-01-10T04:18:18.326Z,101775.00
2024-01-10T04:20:45.219Z,101772.78
2024-01-10T04:23:12.164Z,101773.81
2024-01-10T04:25:39.079Z,101779.06
2024-01-10T04:28:06.283Z,101779.78
2024-01-10T04:30:33.182Z,101784.09
2024-01-10T04:32:59.933Z,101777.38
2024-01-10T04:35:26.670Z,101774.78
2024-01-10T04:37:53.458Z,101778.00
2024-01-10T04:40:20.176Z,101782.88
2024-01-10T04:42:46.775Z,101787.66
2024-01-10T04:45:13.627Z,101795.03
2024-01-10T04:47:40.254Z,101794.63
2024-01-10T04:50:10.603Z,101791.28
2024-01-10T04:52:41.950Z,101792.38
2024-01-10T04:55:08.804Z,101791.03
2024-01-10T04:57:35.393Z,101793.84
2024-01-10T05:00:03.165Z,101796.53
2024-01-10T05:02:29.907Z,101794.75
2024-01-10T05:04:56.700Z,101794.13
2024-01-10T05:07:23.372Z,101802.03
2024-01-10T05:09:50.062Z,101803.66
2024-01-10T05:12:17.056Z,101797.88
2024-01-10T05:14:43.763Z,101798.03
2024-01-10T05:17:10.533Z,101793.53
2024-01-10T05:19:37.328Z,101796.28
2024-01-10T05:22:04.818Z,101799.72
2024-01-10T05:24:31.613Z,101799.44
2024-01-10T05:26:58.286Z,101794.84
2024-01-10T05:29:25.014Z,101798.91
2024-01-10T05:31:52.390Z,101803.94
2024-01-10T05:34:19.169Z,101797.16
2024-01-10T05:36:45.802Z,101802.44
2024-01-10T05:39:12.546Z,101800.16
2024-01-10T05:41:40.639Z,101801.63
2024-01-10T05:44:07.870Z,101792.66
2024-01-10T05:46:34.582Z,101799.66
2024-01-10T05:49:01.474Z,101798.53
2024-01-10T05:51:28.369Z,101796.09
2024-01-10T05:53:54.948Z,101799.09
2024-01-10T05:56:21.622Z,101796.81
2024-01-10T05:58:48.419Z,101799.97
2024-01-10T06:01:15.142Z,101803.34
2024-01-10T06:03:41.839Z,101797.88
2024-01-10T06:06:08.626Z,101797.19
2024-01-10T06:08:35.343Z,101802.44
2024-01-10T06:11:07.278Z,101805.63
2024-01-10T06:13:42.122Z,101808.06
2024-01-10T06:16:16.559Z,101809.91
2024-01-10T06:18:43.379Z,101816.56
2024-01-10T06:21:10.099Z,101807.53
2024-01-10T06:23:36.829Z,101815.47
2024-01-10T06:26:03.570Z,101812.56
2024-01-10T06:28:30.286Z,101810.16
2024-01-10T06:30:57.002Z,101819.94
2024-01-10T06:33:23.766Z,101813.53
2024-01-10T06:35:50.479Z,101820.75
2024-01-10T06:38:17.144Z,101820.53
2024-01-10T06:40:43.874Z,101822.06
2024-01-10T06:43:10.556Z,101825.31
2024-01-10T06:45:37.184Z,101824.69
2024-01-10T06:48:04.192Z,101829.44
2024-01-10T06:50:31.036Z,101833.59
2024-01-10T06:52:57.763Z,101830.75
2024-01-10T06:55:24.502Z,101841.94
2024-01-10T06:57:51.370Z,101844.69
2024-01-10T07:00:18.466Z,101844.81
2024-01-10T07:02:45.139Z,101849.06
2024-01-10T07:05:11.869Z,101849.66
2024-01-10T07:07:38.523Z,101845.09
2024-01-10T07:10:05.873Z,101850.47
2024-01-10T07:12:36.217Z,101853.19
2024-01-10T07:15:02.908Z,101855.88
2024-01-10T07:17:30.002Z,101854.41
2024-01-10T07:19:56.818Z,101843.94
2024-01-10T07:22:24.091Z,101850.06
2024-01-10T07:24:50.786Z,101852.81
2024-01-10T07:27:17.499Z,101843.16
2024-01-10T07:29:44.202Z,101844.53
2024-01-10T07:32:10.905Z,101845.69
2024-01-10T07:34:40.735Z,101850.72
2024-01-10T07:37:07.429Z,101852.78
2024-01-10T07:39:34.153Z,101844.22
2024-01-10T07:42:00.832Z,101848.69
2024-01-10T07:44:27.486Z,101857.19
2024-01-10T07:46:54.212Z,101854.59
2024-01-10T07:49:21.067Z,101852.53
2024-01-10T07:51:47.741Z,101853.00
2024-01-10T07:54:14.380Z,101854.94
2024-01-10T07:56:41.020Z,101862.53
2024-01-10T07:59:07.758Z,101855.00
2024-01-10T08:01:34.479Z,101861.31
2024-01-10T08:04:01.266Z,101855.88
2024-01-10T08:06:32.887Z,101860.13
2024-01-10T08:09:00.428Z,101865.09
2024-01-10T08:11:27.266Z,101861.66
2024-01-10T08:13:53.995Z,101866.50
2024-01-10T08:16:20.622Z,101867.63
2024-01-10T08:18:47.350Z,101871.03
2024-01-10T08:21:13.990Z,101871.19
2024-01-10T08:23:40.751Z,101871.03
2024-01-10T08:26:08.236Z,101875.09
2024-01-10T08:28:34.861Z,101879.41
2024-01-10T08:31:04.513Z,101878.56
2024-01-10T08:33:34.763Z,101877.50
2024-01-10T08:36:01.485Z,101884.09
2024-01-10T08:38:28.196Z,101879.84
2024-01-10T08:40:54.966Z,101877.50
2024-01-10T08:43:21.651Z,101875.34
2024-01-10T08:45:48.307Z,101878.19
2024-01-10T08:48:15.086Z,101879.78
2024-01-10T08:50:41.728Z,101870.53
2024-01-10T08:53:08.379Z,101876.44
2024-01-10T08:55:35.249Z,101872.88
2024-01-10T08:58:02.055Z,101879.59
2024-01-10T09:00:28.701Z,101876.88
2024-01-10T09:02:56.214Z,101871.94
2024-01-10T09:05:22.956Z,101867.63
2024-01-10T09:07:51.209Z,101868.09
2024-01-10T09:10:17.805Z,101867.81
2024-01-10T09:12:44.423Z,101869.53
2024-01-10T09:15:11.130Z,101872.50
2024-01-10T09:17:37.972Z,101852.72
2024-01-10T09:20:05.013Z,101853.28
2024-01-10T09:22:31.691Z,101857.63
2024-01-10T09:24:58.345Z,101857.63
2024-01-10T09:27:24.928Z,101853.75
2024-01-10T09:29:51.524Z,101854.75
2024-01-10T09:32:18.225Z,101849.13
2024-01-10T09:34:45.035Z,101855.84
2024-01-10T09:37:11.712Z,101847.41
2024-01-10T09:39:38.340Z,101859.63
2024-01-10T09:42:05.744Z,101847.19
2024-01-10T09:44:33.950Z,101847.53
2024-01-10T09:47:02.004Z,101836.16
2024-01-10T09:49:29.286Z,101842.03
2024-01-10T09:51:59.666Z,101840.75
2024-01-10T09:54:27.404Z,101836.09
2024-01-10T09:56:54.130Z,101840.03
2024-01-10T09:59:21.163Z,101838.75
2024-01-10T10:01:47.966Z,101828.16
2024-01-10T10:04:16.683Z,101823.66
2024-01-10T10:06:43.378Z,101822.13
2024-01-10T10:09:11.449Z,101815.84
2024-01-10T10:11:38.216Z,101815.94
2024-01-10T10:14:19.320Z,101812.63
2024-01-10T10:16:46.387Z,101812.75
2024-01-10T10:19:15.437Z,101810.13
2024-01-10T10:21:46.104Z,101802.72
2024-01-10T10:24:14.060Z,101807.28
2024-01-10T10:26:41.738Z,101802.31
2024-01-10T10:29:08.703Z,101803.88
2024-01-10T10:31:36.432Z,101814.88
2024-01-10T10:34:03.633Z,101803.16
2024-01-10T10:36:34.059Z,101800.41
2024-01-10T10:39:01.553Z,101794.06
2024-01-10T10:41:32.217Z,101798.53
2024-01-10T10:43:59.486Z,101783.16
2024-01-10T10:46:28.234Z,101781.25
2024-01-10T10:48:59.210Z,101778.78
2024-01-10T10:51:34.046Z,101775.13
2024-01-10T10:54:01.132Z,101771.66
2024-01-10T10:56:33.992Z,101775.25
2024-01-10T10:59:02.977Z,101771.16
2024-01-10T11:01:30.056Z,101770.06
2024-01-10T11:03:56.963Z,101763.84
2024-01-10T11:06:23.992Z,101765.09
2024-01-10T11:09:00.493Z,101754.88
2024-01-10T11:11:49.089Z,101754.94
2024-01-10T11:14:36.792Z,101755.63
2024-01-10T11:17:33.182Z,101749.66
2024-01-10T11:20:14.804Z,101750.75
2024-01-10T11:22:59.142Z,101756.53
2024-01-10T11:25:27.545Z,101745.81
2024-01-10T11:28:03.076Z,101749.06
2024-01-10T11:30:37.673Z,101744.44
2024-01-10T11:33:34.445Z,101748.88
2024-01-10T11:36:13.619Z,101735.66
2024-01-10T11:38:42.013Z,101741.75
2024-01-10T11:41:11.587Z,101728.81
2024-01-10T11:43:38.246Z,101732.91
2024-01-10T11:46:04.886Z,101719.31
2024-01-10T11:48:34.760Z,101728.56
2024-01-10T11:51:01.461Z,101719.50
2024-01-10T11:53:44.263Z,101719.31
2024-01-10T11:56:12.366Z,101720.09
2024-01-10T11:59:03.852Z,101716.97
2024-01-10T12:01:30.954Z,101708.75
2024-01-10T12:04:10.252Z,101706.81
2024-01-10T12:06:41.909Z,101700.69
2024-01-10T12:09:08.775Z,101697.69
2024-01-10T12:11:41.419Z,101701.31
2024-01-10T12:14:09.504Z,101704.16
2024-01-10T12:16:36.681Z,101701.50
2024-01-10T12:19:03.350Z,101695.94
2024-01-10T12:21:29.959Z,101703.69
2024-01-10T12:23:56.638Z,101702.06
2024-01-10T12:26:23.530Z,101704.97
2024-01-10T12:28:57.401Z,101703.72
2024-01-10T12:31:28.596Z,101700.63
2024-01-10T12:34:00.013Z,101702.66
2024-01-10T12:36:27.090Z,101696.38
2024-01-10T12:38:53.834Z,101699.28
2024-01-10T12:41:20.833Z,101697.94
2024-01-10T12:43:53.721Z,101692.78
2024-01-10T12:46:20.324Z,101688.13
2024-01-10T12:49:02.917Z,101684.88
2024-01-10T12:51:30.915Z,101685.13
2024-01-10T12:53:58.985Z,101683.50
2024-01-10T12:56:26.595Z,101681.94
2024-01-10T12:58:53.230Z,101684.88
2024-01-10T13:01:19.884Z,101680.56
2024-01-10T13:03:46.744Z,101681.00
2024-01-10T13:06:13.446Z,101678.75
2024-01-10T13:08:40.172Z,101678.22
2024-01-10T13:11:06.940Z,101681.66
2024-01-10T13:13:33.571Z,101676.72
2024-01-10T13:16:00.276Z,101669.00
2024-01-10T13:18:27.221Z,101675.97
2024-01-10T13:20:54.014Z,101673.13
2024-01-10T13:23:20.879Z,101670.78
2024-01-10T13:25:47.521Z,101671.00
2024-01-10T13:28:14.246Z,101672.81
2024-01-10T13:30:40.980Z,101671.16
2024-01-10T13:33:08.302Z,101670.34
2024-01-10T13:35:35.058Z,101669.91
2024-01-10T13:38:01.775Z,101672.03
2024-01-10T13:40:28.364Z,101671.16
2024-01-10T13:42:55.277Z,101666.22
2024-01-10T13:45:21.916Z,101663.44
2024-01-10T13:47:48.501Z,101665.00
2024-01-10T13:50:15.445Z,101666.88
2024-01-10T13:52:42.142Z,101663.97
2024-01-10T13:55:09.199Z,101664.97
2024-01-10T13:57:35.870Z,101664.88
2024-01-10T14:00:04.643Z,101662.75
2024-01-10T14:02:31.399Z,101662.09
2024-01-10T14:04:58.225Z,101663.88
2024-01-10T14:07:25.080Z,101653.19
2024-01-10T14:09:52.359Z,101659.22
2024-01-10T14:12:19.103Z,101655.56
2024-01-10T14:14:45.704Z,101661.19
2024-01-10T14:17:12.398Z,101656.00
2024-01-10T14:19:39.302Z,101649.69
2024-01-10T14:22:13.723Z,101653.25
2024-01-10T14:24:45.242Z,101650.06
2024-01-10T14:27:12.148Z,101652.34
2024-01-10T14:29:38.983Z,101646.63
2024-01-10T14:32:16.967Z,101650.63
2024-01-10T14:34:45.061Z,101650.41
2024-01-10T14:37:11.820Z,101654.25
2024-01-10T14:39:38.473Z,101649.25
2024-01-10T14:42:06.225Z,101650.66
2024-01-10T14:44:32.947Z,101649.81
2024-01-10T14:47:06.608Z,101646.28
2024-01-10T14:49:37.287Z,101646.56
2024-01-10T14:52:04.167Z,101644.78
2024-01-10T14:54:30.845Z,101648.25
2024-01-10T14:56:57.572Z,101655.28
2024-01-10T14:59:32.341Z,101652.69
2024-01-10T15:02:07.177Z,101657.59
2024-01-10T15:04:38.229Z,101661.06
2024-01-10T15:07:05.138Z,101664.88
2024-01-10T15:09:31.770Z,101657.31
2024-01-10T15:11:58.399Z,101658.69
2024-01-10T15:14:25.051Z,101669.53
2024-01-10T15:16:51.833Z,101672.94
2024-01-10T15:19:18.534Z,101666.28
2024-01-10T15:21:45.169Z,101666.44
2024-01-10T15:24:11.766Z,101668.84
2024-01-10T15:26:38.513Z,101673.13
2024-01-10T15:29:05.254Z,101672.56
2024-01-10T15:31:31.974Z,101674.91
2024-01-10T15:33:58.649Z,101667.88
2024-01-10T15:36:26.272Z,101667.50
2024-01-10T15:38:53.911Z,101670.31
2024-01-10T15:41:20.645Z,101676.38
2024-01-10T15:43:47.362Z,101667.75
2024-01-10T15:46:19.468Z,101665.59
2024-01-10T15:48:46.218Z,101669.28
2024-01-10T15:51:12.909Z,101666.91
2024-01-10T15:53:39.637Z,101666.44
2024-01-10T15:56:06.434Z,101663.53
2024-01-10T15:58:33.107Z,101666.19
2024-01-10T16:01:00.282Z,101667.31
2024-01-10T16:03:27.078Z,101664.03
2024-01-10T16:05:53.831Z,101663.66
2024-01-10T16:08:20.673Z,101667.78
2024-01-10T16:10:47.345Z,101663.78
2024-01-10T16:13:13.960Z,101658.75
2024-01-10T16:15:40.592Z,101663.34
2024-01-10T16:18:07.649Z,101665.72
2024-01-10T16:20:34.340Z,101670.44
2024-01-10T16:23:01.011Z,101659.44
2024-01-10T16:25:27.875Z,101660.41
2024-01-10T16:27:54.523Z,101659.88
2024-01-10T16:30:21.297Z,101660.53
2024-01-10T16:32:48.027Z,101654.34
2024-01-10T16:35:14.855Z,101658.94
2024-01-10T16:37:41.568Z,101671.72
2024-01-10T16:40:08.757Z,101665.84
2024-01-10T16:42:35.372Z,101668.38
2024-01-10T16:45:02.521Z,101665.19
2024-01-10T16:47:30.941Z,101664.81
2024-01-10T16:49:57.775Z,101660.78
2024-01-10T16:52:24.423Z,101662.84
2024-01-10T16:54:51.115Z,101666.09
2024-01-10T16:57:17.695Z,101659.78
2024-01-10T16:59:44.437Z,101665.22
2024-01-10T17:02:11.228Z,101664.13
2024-01-10T17:04:37.892Z,101662.72
2024-01-10T17:07:04.845Z,101668.50
2024-01-10T17:09:31.547Z,101666.81
2024-01-10T17:11:58.291Z,101670.03
2024-01-10T17:14:25.032Z,101672.72
2024-01-10T17:16:51.827Z,101662.84
2024-01-10T17:19:18.559Z,101667.91
2024-01-10T17:21:45.221Z,101665.16
2024-01-10T17:24:11.891Z,101668.19
2024-01-10T17:26:38.551Z,101669.00
2024-01-10T17:29:05.237Z,101669.69
2024-01-10T17:31:31.931Z,101662.09
2024-01-10T17:33:58.632Z,101658.00
2024-01-10T17:36:25.475Z,101654.56
2024-01-10T17:38:52.190Z,101667.63
2024-01-10T17:41:19.392Z,101662.88
2024-01-10T17:43:46.101Z,101657.06
2024-01-10T17:46:12.783Z,101660.25
2024-01-10T17:48:39.530Z,101656.66
2024-01-10T17:51:06.229Z,101660.03
2024-01-10T17:53:32.955Z,101652.34
2024-01-10T17:55:59.769Z,101640.72
2024-01-10T17:58:26.461Z,101645.75
2024-01-10T18:00:53.139Z,101642.25
2024-01-10T18:03:20.220Z,101645.38
2024-01-10T18:05:47.069Z,101639.00
2024-01-10T18:08:13.749Z,101643.66
2024-01-10T18:10:40.342Z,101647.69
2024-01-10T18:13:06.938Z,101647.06
2024-01-10T18:15:33.528Z,101635.25
2024-01-10T18:18:00.501Z,101632.66
2024-01-10T18:20:27.224Z,101640.72
2024-01-10T18:22:54.115Z,101639.50
2024-01-10T18:25:20.763Z,101639.13
2024-01-10T18:27:47.424Z,101631.59
2024-01-10T18:30:15.249Z,101620.75
2024-01-10T18:32:42.069Z,101613.56
2024-01-10T18:35:09.021Z,101617.63
2024-01-10T18:37:35.729Z,101615.59
2024-01-10T18:40:02.416Z,101611.78
2024-01-10T18:42:29.063Z,101614.44
2024-01-10T18:44:55.664Z,101614.63
2024-01-10T18:47:24.009Z,101615.38
2024-01-10T18:49:52.146Z,101606.59
2024-01-10T18:52:18.786Z,101615.41
2024-01-10T18:54:45.361Z,101612.19
2024-01-10T18:57:12.105Z,101599.44
2024-01-10T18:59:38.867Z,101606.75
2024-01-10T19:02:05.568Z,101610.56
2024-01-10T19:04:32.395Z,101600.44
2024-01-10T19:06:59.191Z,101608.25
2024-01-10T19:09:25.847Z,101607.16
2024-01-10T19:11:52.526Z,101604.91
2024-01-10T19:14:20.146Z,101602.03
2024-01-10T19:16:47.715Z,101609.72
2024-01-10T19:19:14.494Z,101609.59
2024-01-10T19:21:41.446Z,101606.34
2024-01-10T19:24:08.278Z,101603.50
2024-01-10T19:26:34.931Z,101607.03
2024-01-10T19:29:01.677Z,101601.28
2024-01-10T19:31:28.750Z,101599.50
2024-01-10T19:33:55.435Z,101603.84
2024-01-10T19:36:24.980Z,101605.25
2024-01-10T19:38:53.574Z,101604.94
2024-01-10T19:41:24.695Z,101610.41
2024-01-10T19:43:52.392Z,101608.03
2024-01-10T19:46:19.927Z,101606.72
2024-01-10T19:48:47.548Z,101613.09
2024-01-10T19:51:15.090Z,101604.97
2024-01-10T19:53:41.863Z,101611.31
2024-01-10T19:56:08.565Z,101615.16
2024-01-10T19:58:35.326Z,101609.84
2024-01-10T20:01:01.980Z,101601.91
2024-01-10T20:03:28.820Z,101608.88
2024-01-10T20:05:55.674Z,101610.06
2024-01-10T20:08:22.368Z,101598.59
2024-01-10T20:10:49.087Z,101598.44
2024-01-10T20:13:15.765Z,101602.50
2024-01-10T20:15:42.474Z,101597.34
2024-01-10T20:18:09.244Z,101598.00
2024-01-10T20:20:35.952Z,101598.09
2024-01-10T20:23:03.519Z,101600.59
2024-01-10T20:25:30.274Z,101597.34
2024-01-10T20:27:56.998Z,101598.66
2024-01-10T20:30:23.750Z,101596.91
2024-01-10T20:32:50.972Z,101598.28
2024-01-10T20:35:17.712Z,101595.22
2024-01-10T20:37:44.348Z,101596.53
2024-01-10T20:40:11.628Z,101595.94
2024-01-10T20:42:38.651Z,101594.81
2024-01-10T20:45:06.646Z,101594.84
2024-01-10T20:47:33.353Z,101595.41
2024-01-10T20:50:00.510Z,101589.09
2024-01-10T20:52:27.202Z,101584.34
2024-01-10T20:54:54.127Z,101585.38
2024-01-10T20:57:20.874Z,101588.69
2024-01-10T20:59:48.222Z,101585.88
2024-01-10T21:02:15.452Z,101589.06
2024-01-10T21:04:42.133Z,101587.72
2024-01-10T21:07:13.338Z,101581.97
2024-01-10T21:09:41.071Z,101584.78
2024-01-10T21:12:11.370Z,101580.25
2024-01-10T21:14:39.661Z,101580.25
2024-01-10T21:17:06.398Z,101577.16
2024-01-10T21:19:33.428Z,101578.03
2024-01-10T21:22:00.126Z,101569.13
2024-01-10T21:24:27.046Z,101573.25
2024-01-10T21:26:54.429Z,101576.94
2024-01-10T21:29:21.156Z,101567.44
2024-01-10T21:31:48.349Z,101563.91
2024-01-10T21:34:15.176Z,101562.94
2024-01-10T21:36:41.942Z,101567.63
2024-01-10T21:39:08.550Z,101567.78
2024-01-10T21:41:35.387Z,101576.31
2024-01-10T21:44:02.044Z,101581.63
2024-01-10T21:46:28.684Z,101579.44
2024-01-10T21:48:55.634Z,101569.53
2024-01-10T21:51:22.288Z,101571.94
2024-01-10T21:53:48.931Z,101568.13
2024-01-10T21:56:15.581Z,101571.06
2024-01-10T21:58:42.216Z,101564.72
2024-01-10T22:01:09.038Z,101564.06
2024-01-10T22:03:36.623Z,101565.69
2024-01-10T22:06:04.086Z,101562.78
2024-01-10T22:08:30.976Z,101553.66
2024-01-10T22:10:57.723Z,101558.13
2024-01-10T22:13:24.409Z,101558.38
2024-01-10T22:15:51.064Z,101559.84
2024-01-10T22:18:18.814Z,101563.72
2024-01-10T22:20:45.970Z,101560.34
2024-01-10T22:23:12.677Z,101565.22
2024-01-10T22:25:39.358Z,101559.53
2024-01-10T22:28:06.347Z,101557.69
2024-01-10T22:30:33.008Z,101545.47
2024-01-10T22:32:59.808Z,101556.16
2024-01-10T22:35:26.602Z,101548.34
2024-01-10T22:37:53.391Z,101554.63
2024-01-10T22:40:20.100Z,101553.16
2024-01-10T22:42:46.716Z,101554.59
2024-01-10T22:45:13.377Z,101551.84
2024-01-10T22:47:40.486Z,101552.84
2024-01-10T22:50:07.738Z,101558.13
2024-01-10T22:52:34.429Z,101568.53
2024-01-10T22:55:01.057Z,101553.66
2024-01-10T22:57:27.755Z,101555.09
2024-01-10T22:59:54.370Z,101552.03
2024-01-10T23:02:21.055Z,101558.13
2024-01-10T23:04:47.723Z,101554.59
2024-01-10T23:07:14.380Z,101558.63
2024-01-10T23:09:41.067Z,101558.41
2024-01-10T23:12:08.090Z,101554.97
2024-01-10T23:14:34.947Z,101555.66
2024-01-10T23:17:01.611Z,101547.56
2024-01-10T23:19:28.371Z,101542.16
2024-01-10T23:21:55.069Z,101540.97
2024-01-10T23:24:21.808Z,101537.97
2024-01-10T23:26:48.581Z,101529.38
2024-01-10T23:29:15.245Z,101533.25
2024-01-10T23:31:42.024Z,101527.34
2024-01-10T23:34:09.390Z,101528.19
2024-01-10T23:36:37.191Z,101533.78
2024-01-10T23:39:03.812Z,101523.34
2024-01-10T23:41:30.587Z,101524.31
2024-01-10T23:43:57.384Z,101524.69
2024-01-10T23:46:24.030Z,101522.63
2024-01-10T23:48:50.777Z,101519.88
2024-01-10T23:51:17.471Z,101514.75
2024-01-10T23:53:44.088Z,101504.94
2024-01-10T23:56:10.792Z,101509.50
2024-01-10T23:58:38.756Z,101503.31
